createdAt,value
2019-05-21T00:00:09.138Z,28.30
2019-05-21T00:02:37.013Z,26.50
2019-05-21T00:05:05.586Z,26.07
2019-05-21T00:07:33.979Z,25.63
2019-05-21T00:10:02.015Z,26.70
2019-05-21T00:12:30.087Z,25.13
2019-05-21T00:14:58.340Z,24.87
2019-05-21T00:17:26.353Z,24.97
2019-05-21T00:19:55.785Z,26.20
2019-05-21T00:22:24.160Z,24.93
2019-05-21T00:24:52.395Z,25.60
2019-05-21T00:27:20.501Z,25.17
2019-05-21T00:30:06.522Z,28.00
2019-05-21T00:32:52.437Z,24.20
2019-05-21T00:35:47.535Z,24.87
2019-05-21T00:38:33.317Z,24.37
2019-05-21T00:41:19.000Z,24.17
2019-05-21T00:43:50.055Z,22.43
2019-05-21T00:46:17.983Z,25.27
2019-05-21T00:48:46.067Z,23.93
2019-05-21T00:51:14.154Z,23.93
2019-05-21T00:53:42.230Z,23.23
2019-05-21T00:56:10.215Z,24.03
2019-05-21T00:58:38.285Z,23.03
2019-05-21T01:01:06.389Z,23.67
2019-05-21T01:03:34.310Z,24.23
2019-05-21T01:06:02.810Z,24.60
2019-05-21T01:08:30.812Z,23.67
2019-05-21T01:10:58.830Z,23.87
2019-05-21T01:13:26.773Z,23.73
2019-05-21T01:15:54.828Z,24.43
2019-05-21T01:18:23.042Z,23.63
2019-05-21T01:20:51.310Z,23.23
2019-05-21T01:23:19.409Z,23.27
2019-05-21T01:25:47.497Z,24.03
2019-05-21T01:28:15.555Z,23.40
2019-05-21T01:30:43.840Z,25.43
2019-05-21T01:33:11.788Z,23.37
2019-05-21T01:35:39.903Z,24.40
2019-05-21T01:38:07.951Z,23.67
2019-05-21T01:40:35.988Z,24.73
2019-05-21T01:43:03.878Z,24.03
2019-05-21T01:45:31.987Z,24.87
2019-05-21T01:47:59.950Z,24.10
2019-05-21T01:50:27.989Z,23.67
2019-05-21T01:52:56.378Z,24.13
2019-05-21T01:55:24.662Z,22.80
2019-05-21T01:57:52.600Z,24.73
2019-05-21T02:00:20.678Z,23.07
2019-05-21T02:02:48.741Z,21.13
2019-05-21T02:05:31.792Z,23.20
2019-05-21T02:07:46.432Z,22.27
2019-05-21T02:10:14.380Z,22.90
2019-05-21T02:12:42.373Z,21.80
2019-05-21T02:15:10.372Z,23.80
2019-05-21T02:17:38.604Z,22.57
2019-05-21T02:20:06.750Z,23.07
2019-05-21T02:22:34.843Z,22.47
2019-05-21T02:25:02.771Z,21.30
2019-05-21T02:27:31.003Z,23.47
2019-05-21T02:29:59.880Z,23.77
2019-05-21T02:32:27.930Z,22.00
2019-05-21T02:34:56.059Z,20.53
2019-05-21T02:37:24.383Z,21.60
2019-05-21T02:39:52.390Z,22.80
2019-05-21T02:42:20.688Z,21.93
2019-05-21T02:44:48.559Z,21.80
2019-05-21T02:47:16.531Z,22.83
2019-05-21T02:49:44.591Z,22.87
2019-05-21T02:52:12.569Z,23.47
2019-05-21T02:54:41.817Z,22.03
2019-05-21T02:57:10.260Z,21.80
2019-05-21T02:59:39.009Z,22.30
2019-05-21T03:02:16.922Z,22.50
2019-05-21T03:04:45.186Z,21.70
2019-05-21T03:07:19.117Z,23.83
2019-05-21T03:09:49.219Z,22.50
2019-05-21T03:12:17.183Z,22.60
2019-05-21T03:14:45.225Z,23.47
2019-05-21T03:17:13.371Z,22.30
2019-05-21T03:19:41.563Z,22.30
2019-05-21T03:22:09.734Z,23.03
2019-05-21T03:24:37.926Z,23.37
2019-05-21T03:27:07.152Z,24.00
2019-05-21T03:29:35.175Z,23.07
2019-05-21T03:32:03.197Z,23.23
2019-05-21T03:34:31.163Z,22.03
2019-05-21T03:36:59.840Z,23.57
2019-05-21T03:39:28.002Z,23.70
2019-05-21T03:41:55.918Z,23.47
2019-05-21T03:44:23.863Z,23.10
2019-05-21T03:46:52.017Z,22.73
2019-05-21T03:49:19.994Z,23.53
2019-05-21T03:51:47.950Z,21.77
2019-05-21T03:54:16.026Z,21.90
2019-05-21T03:56:43.923Z,22.57
2019-05-21T03:59:12.174Z,23.57
2019-05-21T04:01:40.184Z,22.60
2019-05-21T04:04:08.270Z,20.90
2019-05-21T04:06:50.764Z,21.63
2019-05-21T04:09:06.764Z,22.10
2019-05-21T04:11:34.694Z,22.70
2019-05-21T04:14:02.881Z,21.80
2019-05-21T04:16:56.278Z,22.63
2019-05-21T04:19:27.908Z,21.60
2019-05-21T04:21:56.024Z,21.60
2019-05-21T04:24:23.905Z,22.07
2019-05-21T04:26:51.893Z,23.63
2019-05-21T04:29:19.879Z,22.73
2019-05-21T04:31:47.887Z,23.33
2019-05-21T04:34:16.203Z,20.60
2019-05-21T04:36:44.313Z,20.37
2019-05-21T04:39:12.233Z,24.70
2019-05-21T04:41:40.088Z,22.57
2019-05-21T04:44:08.102Z,23.93
2019-05-21T04:46:36.375Z,22.20
2019-05-21T04:49:04.337Z,22.20
2019-05-21T04:51:32.204Z,20.87
2019-05-21T04:54:00.134Z,20.60
2019-05-21T04:56:28.061Z,20.93
2019-05-21T04:58:56.071Z,20.67
2019-05-21T05:01:24.020Z,20.80
2019-05-21T05:03:52.086Z,18.20
2019-05-21T05:06:19.952Z,20.37
2019-05-21T05:08:48.008Z,20.63
2019-05-21T05:11:15.891Z,17.90
2019-05-21T05:13:45.673Z,19.83
2019-05-21T05:16:13.620Z,19.80
2019-05-21T05:18:41.571Z,20.57
2019-05-21T05:21:09.519Z,20.13
2019-05-21T05:23:38.310Z,20.47
2019-05-21T05:26:06.509Z,21.00
2019-05-21T05:28:34.717Z,20.50
2019-05-21T05:31:02.695Z,21.53
2019-05-21T05:33:30.995Z,23.07
2019-05-21T05:35:58.928Z,19.03
2019-05-21T05:38:26.928Z,20.17
2019-05-21T05:40:56.449Z,20.90
2019-05-21T05:43:24.510Z,19.80
2019-05-21T05:45:52.541Z,19.97
2019-05-21T05:48:20.998Z,21.00
2019-05-21T05:50:50.764Z,19.33
2019-05-21T05:53:18.688Z,19.93
2019-05-21T05:55:46.766Z,18.90
2019-05-21T05:58:14.823Z,18.60
2019-05-21T06:00:42.768Z,18.20
2019-05-21T06:03:10.871Z,20.00
2019-05-21T06:05:38.895Z,19.37
2019-05-21T06:08:06.774Z,18.07
2019-05-21T06:10:34.700Z,17.60
2019-05-21T06:13:02.715Z,17.23
2019-05-21T06:15:30.760Z,17.40
2019-05-21T06:17:58.711Z,18.43
2019-05-21T06:20:26.654Z,18.00
2019-05-21T06:22:54.531Z,18.93
2019-05-21T06:25:22.575Z,18.50
2019-05-21T06:27:50.487Z,16.77
2019-05-21T06:30:18.699Z,17.43
2019-05-21T06:32:46.818Z,15.67
2019-05-21T06:35:15.250Z,16.30
2019-05-21T06:37:43.177Z,16.93
2019-05-21T06:40:11.847Z,16.67
2019-05-21T06:42:39.742Z,16.77
2019-05-21T06:45:08.828Z,14.80
2019-05-21T06:47:36.725Z,15.60
2019-05-21T06:50:04.676Z,16.07
2019-05-21T06:52:32.583Z,14.40
2019-05-21T06:55:00.482Z,14.90
2019-05-21T06:57:28.385Z,13.77
2019-05-21T06:59:56.268Z,15.13
2019-05-21T07:02:24.199Z,16.33
2019-05-21T07:04:52.301Z,15.37
2019-05-21T07:07:20.300Z,15.23
2019-05-21T07:09:48.313Z,14.70
2019-05-21T07:12:16.186Z,15.27
2019-05-21T07:14:44.186Z,14.57
2019-05-21T07:17:12.090Z,14.80
2019-05-21T07:19:40.087Z,14.53
2019-05-21T07:22:12.535Z,15.30
2019-05-21T07:24:37.990Z,14.57
2019-05-21T07:27:05.968Z,15.30
2019-05-21T07:29:33.854Z,16.20
2019-05-21T07:32:01.804Z,17.00
2019-05-21T07:34:29.766Z,15.90
2019-05-21T07:36:57.925Z,15.63
2019-05-21T07:39:25.870Z,15.60
2019-05-21T07:41:53.733Z,15.23
2019-05-21T07:44:21.729Z,16.50
2019-05-21T07:46:49.656Z,15.70
2019-05-21T07:49:17.510Z,17.60
2019-05-21T07:51:45.412Z,16.87
2019-05-21T07:54:13.298Z,15.77
2019-05-21T07:56:41.200Z,17.87
2019-05-21T07:59:09.319Z,16.93
2019-05-21T08:01:37.254Z,17.20
2019-05-21T08:04:05.242Z,17.77
2019-05-21T08:06:33.270Z,18.17
2019-05-21T08:09:12.678Z,18.03
2019-05-21T08:11:30.892Z,16.73
2019-05-21T08:13:58.768Z,17.50
2019-05-21T08:16:26.753Z,16.90
2019-05-21T08:18:54.674Z,16.17
2019-05-21T08:21:22.613Z,15.07
2019-05-21T08:23:50.501Z,16.60
2019-05-21T08:26:18.424Z,17.73
2019-05-21T08:28:46.294Z,18.00
2019-05-21T08:31:14.187Z,17.07
2019-05-21T08:33:42.158Z,16.77
2019-05-21T08:36:10.197Z,18.30
2019-05-21T08:38:38.194Z,18.67
2019-05-21T08:41:06.100Z,17.10
2019-05-21T08:43:34.046Z,17.77
2019-05-21T08:46:02.090Z,16.80
2019-05-21T08:48:29.934Z,17.20
2019-05-21T08:50:57.807Z,17.40
2019-05-21T08:53:25.886Z,16.40
2019-05-21T08:55:53.844Z,18.57
2019-05-21T08:58:21.759Z,17.13
2019-05-21T09:00:49.629Z,15.50
2019-05-21T09:03:17.555Z,16.70
2019-05-21T09:05:45.693Z,17.90
2019-05-21T09:08:13.654Z,15.93
2019-05-21T09:10:42.265Z,15.73
2019-05-21T09:13:10.138Z,15.77
2019-05-21T09:15:38.205Z,15.80
2019-05-21T09:18:06.132Z,17.97
2019-05-21T09:20:34.065Z,15.73
2019-05-21T09:23:02.021Z,15.70
2019-05-21T09:25:29.895Z,15.67
2019-05-21T09:27:57.807Z,16.40
2019-05-21T09:30:25.687Z,16.10
2019-05-21T09:32:53.590Z,15.23
2019-05-21T09:35:21.532Z,15.93
2019-05-21T09:37:49.447Z,16.33
2019-05-21T09:40:17.406Z,15.27
2019-05-21T09:42:45.756Z,15.73
2019-05-21T09:45:13.764Z,14.87
2019-05-21T09:47:41.687Z,14.83
2019-05-21T09:50:09.994Z,15.03
2019-05-21T09:52:37.978Z,14.73
2019-05-21T09:55:06.207Z,13.60
2019-05-21T09:57:39.398Z,14.80
2019-05-21T10:00:33.228Z,15.70
2019-05-21T10:03:01.774Z,15.10
2019-05-21T10:05:29.719Z,15.00
2019-05-21T10:07:57.686Z,16.43
2019-05-21T10:10:25.604Z,14.10
2019-05-21T10:12:53.747Z,15.30
2019-05-21T10:15:21.716Z,15.47
2019-05-21T10:17:49.581Z,14.40
2019-05-21T10:20:17.535Z,14.00
2019-05-21T10:22:45.514Z,13.47
2019-05-21T10:25:15.877Z,14.10
2019-05-21T10:27:43.117Z,13.37
2019-05-21T10:30:11.208Z,14.97
2019-05-21T10:32:39.157Z,13.60
2019-05-21T10:35:07.408Z,14.30
2019-05-21T10:37:35.330Z,14.67
2019-05-21T10:40:03.847Z,15.67
2019-05-21T10:42:31.973Z,15.47
2019-05-21T10:44:59.921Z,15.60
2019-05-21T10:47:27.891Z,14.70
2019-05-21T10:49:55.867Z,14.17
2019-05-21T10:52:23.859Z,15.10
2019-05-21T10:54:51.852Z,14.70
2019-05-21T10:57:20.018Z,14.67
2019-05-21T10:59:47.962Z,15.03
2019-05-21T11:02:34.089Z,14.83
2019-05-21T11:05:05.728Z,15.57
2019-05-21T11:07:33.652Z,13.97
2019-05-21T11:10:01.634Z,13.57
2019-05-21T11:12:29.557Z,12.73
2019-05-21T11:14:57.477Z,13.67
2019-05-21T11:17:25.365Z,13.40
2019-05-21T11:19:53.450Z,13.40
2019-05-21T11:22:21.435Z,13.40
2019-05-21T11:24:49.723Z,13.50
2019-05-21T11:27:17.618Z,13.10
2019-05-21T11:29:46.583Z,13.17
2019-05-21T11:32:14.536Z,12.90
2019-05-21T11:34:42.624Z,12.80
2019-05-21T11:37:10.784Z,13.10
2019-05-21T11:39:38.667Z,12.80
2019-05-21T11:42:06.705Z,13.17
2019-05-21T11:44:34.647Z,12.83
2019-05-21T11:47:02.505Z,13.77
2019-05-21T11:49:30.514Z,13.63
2019-05-21T11:51:58.485Z,12.30
2019-05-21T11:54:26.450Z,12.50
2019-05-21T11:56:54.421Z,12.43
2019-05-21T11:59:22.314Z,13.00
2019-05-21T12:01:50.601Z,12.80
2019-05-21T12:04:18.898Z,13.60
2019-05-21T12:06:46.874Z,12.93
2019-05-21T12:09:15.264Z,12.97
2019-05-21T12:11:43.260Z,12.53
2019-05-21T12:14:11.299Z,13.90
2019-05-21T12:16:39.284Z,12.87
2019-05-21T12:19:09.005Z,13.07
2019-05-21T12:21:37.031Z,12.30
2019-05-21T12:24:06.735Z,12.07
2019-05-21T12:26:35.607Z,11.40
2019-05-21T12:29:03.678Z,12.80
2019-05-21T12:31:31.643Z,10.93
2019-05-21T12:33:59.566Z,12.00
2019-05-21T12:36:28.504Z,12.47
2019-05-21T12:39:12.724Z,12.10
2019-05-21T12:41:26.193Z,11.60
2019-05-21T12:43:54.057Z,11.90
2019-05-21T12:46:21.988Z,11.17
2019-05-21T12:48:49.944Z,11.10
2019-05-21T12:51:17.901Z,10.20
2019-05-21T12:53:45.972Z,10.37
2019-05-21T12:56:13.983Z,10.20
2019-05-21T12:58:42.709Z,10.50
2019-05-21T13:01:10.679Z,10.47
2019-05-21T13:03:38.605Z,9.90
2019-05-21T13:06:06.706Z,9.47
2019-05-21T13:08:34.656Z,9.60
2019-05-21T13:11:02.678Z,8.03
2019-05-21T13:13:30.748Z,8.60
2019-05-21T13:15:58.808Z,8.97
2019-05-21T13:18:26.972Z,8.50
2019-05-21T13:20:54.915Z,9.23
2019-05-21T13:23:22.892Z,8.13
2019-05-21T13:25:50.818Z,8.40
2019-05-21T13:28:18.716Z,7.90
2019-05-21T13:30:46.732Z,7.60
2019-05-21T13:33:14.647Z,7.90
2019-05-21T13:35:42.512Z,8.17
2019-05-21T13:38:13.519Z,8.17
2019-05-21T13:40:40.213Z,7.20
2019-05-21T13:43:08.217Z,9.10
2019-05-21T13:45:36.276Z,8.50
2019-05-21T13:48:07.111Z,8.97
2019-05-21T13:50:35.211Z,9.43
2019-05-21T13:53:03.199Z,8.33
2019-05-21T13:55:33.966Z,8.70
2019-05-21T13:58:01.105Z,8.47
2019-05-21T14:00:48.336Z,9.43
2019-05-21T14:03:16.807Z,9.43
2019-05-21T14:05:44.741Z,9.93
2019-05-21T14:08:12.725Z,9.70
2019-05-21T14:10:40.976Z,10.17
2019-05-21T14:13:09.136Z,9.60
2019-05-21T14:15:37.198Z,10.07
2019-05-21T14:18:05.188Z,9.40
2019-05-21T14:20:33.064Z,9.60
2019-05-21T14:23:01.091Z,9.43
2019-05-21T14:25:29.133Z,10.43
2019-05-21T14:27:57.003Z,10.70
2019-05-21T14:30:24.974Z,9.50
2019-05-21T14:32:52.957Z,11.07
2019-05-21T14:35:21.001Z,11.53
2019-05-21T14:37:51.100Z,10.50
2019-05-21T14:40:31.101Z,10.10
2019-05-21T14:42:59.140Z,11.20
2019-05-21T14:45:19.699Z,10.50
2019-05-21T14:47:47.610Z,10.67
2019-05-21T14:50:15.869Z,10.53
2019-05-21T14:52:43.913Z,10.10
2019-05-21T14:55:12.111Z,10.43
2019-05-21T14:57:40.109Z,9.50
2019-05-21T15:00:18.907Z,10.63
2019-05-21T15:02:46.953Z,10.90
2019-05-21T15:05:15.106Z,10.17
2019-05-21T15:07:43.502Z,10.67
2019-05-21T15:10:11.569Z,11.53
2019-05-21T15:12:41.412Z,11.20
2019-05-21T15:15:13.822Z,10.53
2019-05-21T15:17:41.866Z,11.60
2019-05-21T15:20:16.590Z,11.67
2019-05-21T15:22:45.272Z,10.03
2019-05-21T15:25:15.311Z,10.83
2019-05-21T15:27:44.255Z,10.50
2019-05-21T15:30:15.757Z,10.50
2019-05-21T15:32:45.508Z,11.47
2019-05-21T15:35:13.974Z,11.80
2019-05-21T15:37:44.985Z,11.20
2019-05-21T15:40:12.455Z,12.17
2019-05-21T15:42:40.582Z,12.00
2019-05-21T15:45:08.873Z,13.43
2019-05-21T15:47:36.904Z,13.70
2019-05-21T15:50:05.874Z,13.17
2019-05-21T15:52:33.875Z,11.73
2019-05-21T15:55:06.580Z,11.93
2019-05-21T15:57:31.888Z,12.43
2019-05-21T15:59:59.890Z,10.60
2019-05-21T16:02:27.895Z,9.47
2019-05-21T16:04:55.826Z,8.80
2019-05-21T16:07:23.811Z,9.23
2019-05-21T16:09:51.758Z,8.43
2019-05-21T16:12:19.714Z,8.07
2019-05-21T16:14:47.607Z,6.73
2019-05-21T16:17:15.550Z,6.63
2019-05-21T16:19:43.427Z,5.37
2019-05-21T16:22:11.453Z,5.30
2019-05-21T16:24:39.505Z,5.83
2019-05-21T16:27:07.512Z,5.50
2019-05-21T16:29:35.712Z,5.03
2019-05-21T16:32:04.029Z,5.20
2019-05-21T16:34:32.242Z,4.20
2019-05-21T16:37:00.441Z,4.70
2019-05-21T16:39:28.860Z,4.63
2019-05-21T16:41:56.836Z,4.90
2019-05-21T16:44:25.134Z,4.73
2019-05-21T16:46:53.442Z,5.03
2019-05-21T16:49:21.459Z,4.60
2019-05-21T16:51:49.454Z,5.40
2019-05-21T16:54:17.560Z,5.20
2019-05-21T16:56:46.072Z,5.17
2019-05-21T16:59:14.278Z,5.30
2019-05-21T17:01:42.304Z,5.57
2019-05-21T17:04:10.338Z,5.27
2019-05-21T17:06:38.445Z,5.20
2019-05-21T17:09:06.999Z,5.40
2019-05-21T17:11:35.154Z,5.37
2019-05-21T17:14:03.179Z,6.40
2019-05-21T17:16:31.286Z,5.30
2019-05-21T17:19:00.049Z,8.07
2019-05-21T17:21:28.090Z,7.23
2019-05-21T17:23:58.634Z,6.57
2019-05-21T17:26:26.764Z,6.90
2019-05-21T17:28:55.188Z,7.53
2019-05-21T17:31:24.063Z,7.90
2019-05-21T17:33:52.954Z,7.27
2019-05-21T17:36:20.917Z,7.63
2019-05-21T17:38:49.158Z,7.20
2019-05-21T17:41:17.392Z,7.63
2019-05-21T17:43:45.437Z,8.20
2019-05-21T17:46:13.496Z,7.73
2019-05-21T17:48:41.556Z,8.27
2019-05-21T17:51:09.547Z,6.93
2019-05-21T17:53:37.803Z,8.73
2019-05-21T17:56:06.185Z,8.67
2019-05-21T17:58:34.247Z,9.07
2019-05-21T18:01:04.311Z,9.20
2019-05-21T18:03:32.828Z,10.30
2019-05-21T18:06:00.844Z,10.23
2019-05-21T18:08:29.532Z,11.37
2019-05-21T18:10:58.431Z,11.47
2019-05-21T18:13:27.113Z,11.77
2019-05-21T18:15:56.484Z,11.00
2019-05-21T18:18:25.115Z,11.90
2019-05-21T18:20:53.090Z,11.40
2019-05-21T18:23:21.232Z,12.10
2019-05-21T18:25:49.367Z,11.70
2019-05-21T18:28:17.415Z,10.63
2019-05-21T18:30:45.478Z,10.80
2019-05-21T18:33:13.979Z,11.10
2019-05-21T18:35:45.248Z,11.80
2019-05-21T18:38:12.159Z,11.90
2019-05-21T18:40:40.098Z,12.97
2019-05-21T18:43:08.247Z,13.40
2019-05-21T18:45:36.543Z,14.50
2019-05-21T18:48:04.847Z,14.47
2019-05-21T18:50:36.709Z,15.43
2019-05-21T18:53:02.875Z,15.07
2019-05-21T18:55:30.918Z,15.47
2019-05-21T18:57:59.098Z,15.63
2019-05-21T19:00:27.279Z,15.33
2019-05-21T19:02:55.350Z,15.63
2019-05-21T19:05:23.386Z,14.73
2019-05-21T19:07:51.734Z,16.20
2019-05-21T19:10:20.281Z,15.03
2019-05-21T19:12:48.505Z,14.60
2019-05-21T19:15:16.639Z,14.37
2019-05-21T19:17:44.672Z,13.30
2019-05-21T19:20:13.422Z,14.80
2019-05-21T19:22:42.317Z,14.03
2019-05-21T19:25:11.133Z,14.80
2019-05-21T19:27:39.974Z,15.63
2019-05-21T19:30:08.674Z,13.67
2019-05-21T19:32:36.791Z,13.43
2019-05-21T19:35:05.240Z,13.20
2019-05-21T19:37:33.348Z,14.00
2019-05-21T19:40:01.661Z,14.37
2019-05-21T19:42:29.747Z,14.87
2019-05-21T19:44:57.883Z,15.83
2019-05-21T19:47:25.897Z,15.00
2019-05-21T19:49:53.963Z,14.77
2019-05-21T19:52:22.011Z,15.47
2019-05-21T19:54:50.105Z,14.43
2019-05-21T19:57:19.802Z,14.80
2019-05-21T19:59:48.376Z,15.00
2019-05-21T20:02:17.049Z,15.20
2019-05-21T20:04:46.118Z,14.00
2019-05-21T20:07:16.271Z,14.60
2019-05-21T20:09:45.383Z,14.50
2019-05-21T20:12:13.925Z,15.30
2019-05-21T20:14:42.436Z,15.20
2019-05-21T20:17:11.003Z,15.20
2019-05-21T20:19:39.644Z,16.43
2019-05-21T20:22:09.319Z,15.63
2019-05-21T20:24:38.806Z,15.30
2019-05-21T20:27:07.310Z,16.47
2019-05-21T20:29:35.339Z,16.00
2019-05-21T20:32:05.178Z,16.43
2019-05-21T20:34:33.145Z,16.03
2019-05-21T20:37:01.955Z,15.53
2019-05-21T20:39:30.819Z,15.87
2019-05-21T20:41:58.805Z,17.70
2019-05-21T20:44:27.250Z,16.53
2019-05-21T20:46:57.180Z,18.87
2019-05-21T20:49:25.182Z,18.83
2019-05-21T20:51:53.434Z,18.53
2019-05-21T20:54:21.764Z,17.80
2019-05-21T20:56:49.904Z,19.20
2019-05-21T20:59:17.837Z,16.77
2019-05-21T21:01:46.319Z,17.33
2019-05-21T21:04:14.394Z,18.50
2019-05-21T21:06:42.689Z,19.00
2019-05-21T21:09:11.899Z,19.60
2019-05-21T21:11:40.864Z,20.40
2019-05-21T21:14:18.049Z,20.13
2019-05-21T21:16:41.812Z,19.23
2019-05-21T21:19:10.745Z,20.27
2019-05-21T21:21:39.830Z,20.47
2019-05-21T21:24:08.231Z,20.37
2019-05-21T21:26:36.870Z,20.43
2019-05-21T21:29:05.293Z,20.27
2019-05-21T21:31:33.470Z,20.40
2019-05-21T21:34:01.835Z,20.10
2019-05-21T21:36:30.058Z,20.87
2019-05-21T21:38:59.754Z,21.00
2019-05-21T21:41:28.311Z,19.77
2019-05-21T21:43:56.185Z,20.10
2019-05-21T21:46:24.349Z,20.30
2019-05-21T21:48:52.284Z,20.27
2019-05-21T21:51:20.320Z,20.43
2019-05-21T21:53:48.853Z,20.73
2019-05-21T21:56:16.734Z,21.60
2019-05-21T21:58:44.846Z,22.03
2019-05-21T22:01:47.014Z,21.67
2019-05-21T22:04:16.851Z,22.57
2019-05-21T22:06:45.605Z,23.67
2019-05-21T22:09:18.898Z,24.90
2019-05-21T22:11:46.843Z,23.90
2019-05-21T22:14:15.792Z,21.53
2019-05-21T22:16:44.222Z,23.30
2019-05-21T22:19:12.631Z,25.63
2019-05-21T22:21:40.641Z,23.80
2019-05-21T22:24:09.034Z,24.70
2019-05-21T22:26:37.559Z,23.50
2019-05-21T22:29:05.959Z,24.90
2019-05-21T22:31:34.301Z,24.23
2019-05-21T22:34:02.589Z,21.70
2019-05-21T22:36:31.340Z,23.50
2019-05-21T22:38:59.658Z,23.90
2019-05-21T22:41:27.809Z,24.50
2019-05-21T22:43:55.963Z,25.10
2019-05-21T22:46:24.038Z,24.83
2019-05-21T22:48:52.934Z,24.43
2019-05-21T22:51:21.510Z,26.00
2019-05-21T22:53:49.617Z,25.93
2019-05-21T22:56:17.950Z,25.40
2019-05-21T22:58:46.092Z,25.43
2019-05-21T23:01:14.428Z,24.83
2019-05-21T23:03:42.466Z,23.67
2019-05-21T23:06:10.547Z,26.10
2019-05-21T23:08:39.175Z,26.27
2019-05-21T23:11:07.331Z,28.10
2019-05-21T23:13:35.478Z,26.80
2019-05-21T23:16:04.806Z,26.63
2019-05-21T23:18:33.929Z,26.43
2019-05-21T23:21:03.955Z,25.87
2019-05-21T23:23:33.411Z,27.47
2019-05-21T23:26:02.315Z,26.60
2019-05-21T23:28:31.114Z,26.67
2019-05-21T23:31:01.409Z,25.53
2019-05-21T23:33:30.703Z,24.87
2019-05-21T23:35:58.738Z,27.27
2019-05-21T23:38:27.977Z,26.40
2019-05-21T23:40:56.554Z,25.03
2019-05-21T23:43:24.817Z,26.47
2019-05-21T23:45:53.231Z,27.50
2019-05-21T23:48:22.178Z,26.93
2019-05-21T23:50:50.262Z,25.87
2019-05-21T23:53:18.430Z,26.80
2019-05-21T23:55:47.151Z,26.90
2019-05-21T23:58:15.797Z,26.90
